createdAt,value
2018-10-05T00:08:36.684Z,58.4
2018-10-05T00:18:47.919Z,58.2
2018-10-05T00:29:02.195Z,58.1
2018-10-05T00:56:02.746Z,58.0
2018-10-05T01:06:14.125Z,58.1
2018-10-05T01:16:59.583Z,59.0
2018-10-05T01:27:13.147Z,58.7
2018-10-05T01:37:27.142Z,58.4
2018-10-05T01:47:41.143Z,58.3
2018-10-05T01:57:54.740Z,58.5
2018-10-05T02:08:08.559Z,58.5
2018-10-05T02:18:22.667Z,58.5
2018-10-05T02:28:36.098Z,58.4
2018-10-05T02:38:50.443Z,58.5
2018-10-05T02:49:04.590Z,58.4
2018-10-05T02:59:18.802Z,58.5
2018-10-05T05:14:41.822Z,57.7
2018-10-05T05:48:53.230Z,57.4
2018-10-05T06:38:30.371Z,59.6
2018-10-05T07:03:57.349Z,59.9
2018-10-05T08:04:08.553Z,54.8
2018-10-05T08:49:42.717Z,41.9
2018-10-05T09:15:33.803Z,38.6
2018-10-05T09:29:18.680Z,37.8
2018-10-05T09:42:02.354Z,37.1
2018-10-05T09:53:24.369Z,36.5
2018-10-05T10:04:17.065Z,35.4
2018-10-05T10:14:32.852Z,34.2
2018-10-05T10:26:39.176Z,32.6
2018-10-05T10:37:00.716Z,33.1
2018-10-05T10:47:50.428Z,32.0
2018-10-05T10:58:05.968Z,32.0
2018-10-05T11:08:51.860Z,31.3
2018-10-05T11:19:06.439Z,30.0
2018-10-05T11:29:20.529Z,29.8
2018-10-05T11:39:34.671Z,27.9
2018-10-05T11:49:47.814Z,27.5
2018-10-05T12:00:16.026Z,26.7
2018-10-05T12:11:12.990Z,26.4
2018-10-05T12:47:29.844Z,28.0
2018-10-05T12:59:34.104Z,28.8
2018-10-05T13:11:03.045Z,32.6
2018-10-05T13:21:54.130Z,34.6
2018-10-05T13:33:57.513Z,35.0
2018-10-05T13:44:25.154Z,35.2
2018-10-05T13:54:41.471Z,35.1
2018-10-05T14:06:11.011Z,35.6
2018-10-05T14:41:16.266Z,35.3
2018-10-05T15:14:30.501Z,32.3
2018-10-05T15:27:53.596Z,34.6
2018-10-05T15:55:50.353Z,35.7
2018-10-05T16:07:39.841Z,37.2
2018-10-05T16:18:38.510Z,38.2
2018-10-05T16:29:33.187Z,39.6
2018-10-05T16:40:56.013Z,40.3
2018-10-05T16:51:45.834Z,41.4
2018-10-05T17:04:56.290Z,42.5
2018-10-05T17:40:09.637Z,44.5
2018-10-05T18:23:45.505Z,46.3
2018-10-05T18:56:10.715Z,47.5
2018-10-05T19:27:07.666Z,48.5
2018-10-05T19:38:07.436Z,47.8
2018-10-05T20:05:35.029Z,49.6
2018-10-05T20:15:52.191Z,50.5
2018-10-05T20:27:05.686Z,50.6
2018-10-05T20:37:55.317Z,49.9
2018-10-05T20:51:53.633Z,50.4
2018-10-05T22:19:12.476Z,50.6
2018-10-05T23:03:56.852Z,50.8
2018-10-05T23:25:11.369Z,50.8
2018-10-05T23:35:27.449Z,49.6
